Time;durP1;ratioP1;P1;durP2;ratioP2;P2;SDS_P1;SDS_P2;PMS_P1;PMS_P2;Temp;Humidity;BMP_temperature;BMP_pressure;BME280_temperature;BME280_humidity;BME280_pressure;Samples;Min_cycle;Max_cycle;Signal;HPM_P1;HPM_P2
2021/12/09 00:02:13;;;;;;;13.85;6.38;;;-3.20;99.90;;;;;;5014763;28;20117;-71
2021/12/09 00:04:41;;;;;;;12.65;5.93;;;-3.20;99.90;;;;;;5014761;28;20018;-71
2021/12/09 00:07:07;;;;;;;14.65;6.65;;;-3.20;99.90;;;;;;5014267;28;20022;-71
2021/12/09 00:09:33;;;;;;;14.18;7.70;;;-3.20;99.90;;;;;;5013135;28;20065;-71
2021/12/09 00:11:59;;;;;;;17.40;8.20;;;-3.20;99.90;;;;;;5014410;28;20022;-71
2021/12/09 00:14:30;;;;;;;15.52;7.90;;;-3.20;99.90;;;;;;5014456;28;20030;-70
2021/12/09 00:17:00;;;;;;;16.15;7.18;;;-3.20;99.90;;;;;;5013969;28;20041;-70
2021/12/09 00:19:26;;;;;;;14.70;7.38;;;-3.20;99.90;;;;;;5014332;28;20034;-70
2021/12/09 00:21:52;;;;;;;16.75;8.00;;;-3.30;99.90;;;;;;5014091;28;20022;-70
2021/12/09 00:24:18;;;;;;;14.93;6.82;;;-3.30;99.90;;;;;;5014131;28;20109;-70
2021/12/09 00:26:44;;;;;;;14.00;7.43;;;-3.30;99.90;;;;;;5014312;28;20025;-70
2021/12/09 00:29:11;;;;;;;14.00;7.25;;;-3.30;99.90;;;;;;5014125;28;20485;-70
2021/12/09 00:31:37;;;;;;;13.85;7.15;;;-3.30;99.90;;;;;;5013850;28;20029;-70
2021/12/09 00:34:03;;;;;;;12.50;6.25;;;-3.30;99.90;;;;;;5013610;28;20393;-70
2021/12/09 00:36:44;;;;;;;11.95;5.97;;;-3.30;99.90;;;;;;5014196;28;20033;-70
2021/12/09 00:39:11;;;;;;;12.60;5.97;;;-3.30;99.90;;;;;;5014424;28;20026;-70
2021/12/09 00:41:38;;;;;;;12.80;6.85;;;-3.20;99.90;;;;;;5014417;28;20056;-70
2021/12/09 00:44:05;;;;;;;14.07;7.95;;;-3.20;99.90;;;;;;5013730;28;20035;-71
2021/12/09 00:46:31;;;;;;;13.15;7.03;;;-3.20;99.90;;;;;;5013878;28;20052;-71
2021/12/09 00:48:57;;;;;;;12.93;6.65;;;-3.20;99.90;;;;;;5014140;28;20424;-70
2021/12/09 00:51:22;;;;;;;12.40;6.20;;;-3.20;99.90;;;;;;5013835;28;20025;-71
2021/12/09 00:53:49;;;;;;;14.07;7.47;;;-3.10;99.90;;;;;;5013691;28;20478;-71
2021/12/09 00:56:15;;;;;;;15.13;8.00;;;-3.10;99.90;;;;;;5013645;28;20079;-71
2021/12/09 00:58:42;;;;;;;15.20;7.32;;;-3.10;99.90;;;;;;5013526;28;20079;-70
2021/12/09 01:01:09;;;;;;;11.88;6.57;;;-3.10;99.90;;;;;;5013893;28;20053;-70
2021/12/09 01:03:36;;;;;;;16.30;7.00;;;-3.10;99.90;;;;;;5013663;28;20021;-70
2021/12/09 01:06:03;;;;;;;14.18;7.30;;;-3.10;99.90;;;;;;5013613;28;20390;-70
2021/12/09 01:08:29;;;;;;;14.00;7.55;;;-3.10;99.90;;;;;;5014117;28;20022;-71
2021/12/09 01:10:55;;;;;;;11.45;6.88;;;-3.10;99.90;;;;;;5014045;28;20048;-71
2021/12/09 01:13:21;;;;;;;14.95;7.18;;;-3.10;99.90;;;;;;5013588;28;20124;-70
2021/12/09 01:15:47;;;;;;;14.18;6.63;;;-3.10;99.90;;;;;;5012102;28;20037;-70
2021/12/09 01:18:13;;;;;;;14.48;6.90;;;-3.10;99.90;;;;;;5013673;28;20034;-70
2021/12/09 01:20:38;;;;;;;14.48;7.45;;;-3.10;99.90;;;;;;5013954;28;20037;-70
2021/12/09 01:23:04;;;;;;;12.93;6.95;;;-3.10;99.90;;;;;;5013658;28;20382;-71
2021/12/09 01:25:36;;;;;;;17.25;7.85;;;-3.10;99.90;;;;;;5013574;28;20049;-70
2021/12/09 01:28:02;;;;;;;16.42;8.68;;;-3.10;99.90;;;;;;5012203;28;20045;-70
2021/12/09 01:30:28;;;;;;;15.98;8.23;;;-3.10;99.90;;;;;;5013268;28;20030;-71
2021/12/09 01:32:55;;;;;;;11.82;6.55;;;-3.00;99.90;;;;;;5013605;28;20022;-70
2021/12/09 01:35:27;;;;;;;12.32;6.63;;;-3.00;99.90;;;;;;5013312;28;20061;-70
2021/12/09 01:37:56;;;;;;;13.35;6.75;;;-3.00;99.90;;;;;;5013421;28;20033;-70
2021/12/09 01:40:23;;;;;;;12.60;6.45;;;-3.00;99.90;;;;;;5013623;28;20018;-70
2021/12/09 01:42:50;;;;;;;12.55;6.70;;;-3.00;99.90;;;;;;5013325;28;20102;-70
2021/12/09 01:45:16;;;;;;;14.65;6.68;;;-3.00;99.90;;;;;;5014043;28;20019;-70
2021/12/09 01:47:42;;;;;;;13.48;7.47;;;-3.00;99.90;;;;;;5017032;28;20026;-70
2021/12/09 01:50:09;;;;;;;13.75;7.32;;;-2.90;99.90;;;;;;5017107;28;20037;-70
2021/12/09 01:52:35;;;;;;;14.70;7.38;;;-3.00;99.90;;;;;;5015901;28;20382;-70
2021/12/09 01:55:01;;;;;;;11.85;7.22;;;-3.00;99.90;;;;;;5016908;28;20022;-70
2021/12/09 01:57:27;;;;;;;14.80;6.68;;;-3.00;99.90;;;;;;5016757;28;20413;-70
2021/12/09 01:59:52;;;;;;;11.98;6.70;;;-3.00;99.90;;;;;;5017205;28;20106;-70
2021/12/09 02:02:18;;;;;;;14.02;7.88;;;-3.00;99.90;;;;;;5016943;28;20022;-70
2021/12/09 02:04:44;;;;;;;16.55;7.80;;;-3.00;99.90;;;;;;5017062;28;20014;-70
2021/12/09 02:07:10;;;;;;;14.25;8.10;;;-3.00;99.90;;;;;;5016701;28;20052;-70
2021/12/09 02:09:36;;;;;;;14.38;7.30;;;-3.00;99.90;;;;;;5016744;28;20072;-70
2021/12/09 02:12:03;;;;;;;14.00;7.78;;;-3.00;99.90;;;;;;5017208;28;20026;-70
2021/12/09 02:14:29;;;;;;;13.88;6.68;;;-3.00;99.90;;;;;;5015272;28;20021;-70
2021/12/09 02:16:55;;;;;;;11.73;6.53;;;-3.00;99.90;;;;;;5016794;28;20022;-69
2021/12/09 02:19:21;;;;;;;11.20;6.95;;;-3.00;99.90;;;;;;5016980;28;20076;-70
2021/12/09 02:21:47;;;;;;;12.77;6.97;;;-3.00;99.90;;;;;;5016700;28;20029;-71
2021/12/09 02:24:16;;;;;;;12.85;6.43;;;-3.00;99.90;;;;;;5016518;28;20034;-70
2021/12/09 02:26:44;;;;;;;14.20;7.03;;;-2.90;99.90;;;;;;5015144;28;20022;-70
2021/12/09 02:29:12;;;;;;;13.10;7.05;;;-2.90;99.90;;;;;;5016415;28;20034;-70
2021/12/09 02:31:39;;;;;;;13.73;7.82;;;-2.90;99.90;;;;;;5016344;28;20022;-70
2021/12/09 02:34:06;;;;;;;15.48;8.20;;;-2.90;99.90;;;;;;5014976;28;20030;-70
2021/12/09 02:36:36;;;;;;;15.85;8.27;;;-2.90;99.90;;;;;;5016192;28;20053;-70
2021/12/09 02:39:07;;;;;;;12.43;7.03;;;-2.90;99.90;;;;;;5016690;28;20084;-70
2021/12/09 02:41:35;;;;;;;;;;;-2.90;99.90;;;;;;5016750;28;20061;-70
2021/12/09 02:44:04;;;;;;;14.18;6.80;;;-2.90;99.90;;;;;;5016025;28;19921;-69
2021/12/09 02:46:36;;;;;;;11.80;6.82;;;-2.90;99.90;;;;;;5014684;28;20135;-70
2021/12/09 02:49:05;;;;;;;12.55;7.38;;;-2.90;99.90;;;;;;5015479;28;20373;-70
2021/12/09 02:51:31;;;;;;;14.10;7.22;;;-2.80;99.90;;;;;;5014828;28;20135;-70
2021/12/09 02:53:56;;;;;;;12.50;7.30;;;-2.80;99.90;;;;;;5014625;28;20514;-70
2021/12/09 02:56:22;;;;;;;15.63;7.85;;;-2.80;99.90;;;;;;5015355;28;20393;-70
2021/12/09 02:58:48;;;;;;;15.52;7.85;;;-2.90;99.90;;;;;;5015703;28;20469;-70
2021/12/09 03:01:25;;;;;;;13.85;8.38;;;-2.80;99.90;;;;;;5016116;28;20054;-70
2021/12/09 03:03:56;;;;;;;14.10;8.23;;;-2.80;99.90;;;;;;5015990;28;20029;-70
2021/12/09 03:06:33;;;;;;;16.10;7.57;;;-2.90;99.90;;;;;;5015641;28;20029;-70
2021/12/09 03:09:02;;;;;;;13.60;7.00;;;-2.80;99.90;;;;;;5015927;28;20442;-70
2021/12/09 03:11:29;;;;;;;12.27;7.22;;;-2.80;99.90;;;;;;5014305;28;20026;-70
2021/12/09 03:13:55;;;;;;;14.95;7.70;;;-2.80;99.90;;;;;;5015529;28;20033;-70
2021/12/09 03:16:22;;;;;;;15.25;8.73;;;-2.80;99.90;;;;;;5015529;28;20079;-70
2021/12/09 03:19:04;;;;;;;13.18;7.82;;;-2.80;99.90;;;;;;5015669;28;20359;-70
2021/12/09 03:21:31;;;;;;;14.77;8.40;;;-2.80;99.90;;;;;;5014170;28;20026;-71
2021/12/09 03:23:58;;;;;;;14.25;7.97;;;-2.80;99.90;;;;;;5014114;28;20497;-70
2021/12/09 03:26:29;;;;;;;17.08;8.43;;;-2.70;99.90;;;;;;5015213;28;20033;-70
2021/12/09 03:29:02;;;;;;;15.23;7.90;;;-2.70;99.90;;;;;;5015833;28;20018;-70
2021/12/09 03:31:28;;;;;;;16.13;8.48;;;-2.70;99.90;;;;;;5015448;28;20053;-70
2021/12/09 03:33:54;;;;;;;15.55;7.75;;;-2.70;99.90;;;;;;5015126;28;20026;-70
2021/12/09 03:36:20;;;;;;;17.30;7.97;;;-2.80;99.90;;;;;;5014894;28;20026;-70
2021/12/09 03:38:46;;;;;;;17.17;8.60;;;-2.80;99.90;;;;;;5015193;28;20026;-70
2021/12/09 03:41:12;;;;;;;14.25;7.80;;;-2.80;99.90;;;;;;5015041;28;20084;-70
2021/12/09 03:43:38;;;;;;;16.75;8.60;;;-2.80;99.90;;;;;;5013573;28;20034;-70
2021/12/09 03:46:04;;;;;;;15.60;8.93;;;-2.80;99.90;;;;;;5014861;28;20026;-70
2021/12/09 03:48:31;;;;;;;16.08;8.05;;;-2.80;99.90;;;;;;5014895;28;20022;-70
2021/12/09 03:50:58;;;;;;;15.30;8.45;;;-2.80;99.90;;;;;;5013487;28;20034;-70
2021/12/09 03:53:24;;;;;;;18.88;9.60;;;-2.80;99.90;;;;;;5013781;28;20053;-70
2021/12/09 03:55:50;;;;;;;15.20;8.82;;;-2.80;99.90;;;;;;5014668;28;20049;-70
2021/12/09 03:58:17;;;;;;;15.73;8.32;;;-2.80;99.90;;;;;;5013337;28;20033;-70
2021/12/09 04:00:44;;;;;;;16.27;8.32;;;-2.80;99.90;;;;;;5014958;28;20041;-70
2021/12/09 04:03:09;;;;;;;18.13;8.57;;;-2.80;99.90;;;;;;5014976;28;20025;-70
2021/12/09 04:05:36;;;;;;;14.93;8.68;;;-2.70;99.90;;;;;;5014550;28;20389;-70
2021/12/09 04:08:03;;;;;;;12.30;7.63;;;-2.70;99.90;;;;;;5013796;28;20032;-70
2021/12/09 04:10:30;;;;;;;14.07;8.10;;;-2.70;99.90;;;;;;5014488;28;20037;-70
2021/12/09 04:12:56;;;;;;;11.90;7.38;;;-2.70;99.90;;;;;;5014493;28;20382;-70
2021/12/09 04:15:22;;;;;;;15.23;7.60;;;-2.70;99.90;;;;;;5014746;28;20418;-70
2021/12/09 04:17:47;;;;;;;12.13;7.10;;;-2.70;99.90;;;;;;5014236;28;20033;-70
2021/12/09 04:20:13;;;;;;;13.65;7.70;;;-2.60;99.90;;;;;;5014375;28;20072;-70
2021/12/09 04:22:41;;;;;;;15.02;8.48;;;-2.70;99.90;;;;;;5013129;28;20478;-70
2021/12/09 04:25:07;;;;;;;16.13;8.23;;;-2.60;99.90;;;;;;5014575;28;20057;-70
2021/12/09 04:27:33;;;;;;;15.82;8.50;;;-2.60;99.90;;;;;;5012840;28;20033;-70
2021/12/09 04:29:59;;;;;;;13.73;7.95;;;-2.60;99.90;;;;;;5014217;28;20018;-70
2021/12/09 04:32:25;;;;;;;17.73;8.48;;;-2.70;99.90;;;;;;5014845;28;20355;-70
2021/12/09 04:34:53;;;;;;;16.13;8.38;;;-2.70;99.90;;;;;;5012771;28;20160;-70
2021/12/09 04:37:20;;;;;;;16.27;8.05;;;-2.60;99.90;;;;;;5014025;28;20067;-71
2021/12/09 04:39:46;;;;;;;12.15;7.50;;;-2.60;99.90;;;;;;5014027;28;20022;-70
2021/12/09 04:42:12;;;;;;;16.42;9.25;;;-2.60;99.90;;;;;;5014205;28;20029;-70
2021/12/09 04:44:38;;;;;;;14.63;8.45;;;-2.60;99.90;;;;;;5013809;28;20405;-70
2021/12/09 04:47:04;;;;;;;14.52;8.32;;;-2.60;99.90;;;;;;5013972;28;20093;-70
2021/12/09 04:49:30;;;;;;;14.30;7.20;;;-2.60;99.90;;;;;;5014187;28;20022;-70
2021/12/09 04:51:57;;;;;;;12.20;7.75;;;-2.60;99.90;;;;;;5013939;28;20113;-70
2021/12/09 04:54:24;;;;;;;12.95;7.78;;;-2.70;99.90;;;;;;5014165;28;20030;-70
2021/12/09 04:56:49;;;;;;;19.95;9.18;;;-2.70;99.90;;;;;;5012494;28;20036;-69
2021/12/09 04:59:15;;;;;;;16.75;9.02;;;-2.70;99.90;;;;;;5013894;28;20117;-70
2021/12/09 05:01:47;;;;;;;16.25;9.00;;;-2.70;99.90;;;;;;5013790;28;20076;-70
2021/12/09 05:04:12;;;;;;;17.50;9.18;;;-2.60;99.90;;;;;;5013983;28;20046;-70
2021/12/09 05:06:38;;;;;;;17.75;8.93;;;-2.60;99.90;;;;;;5013582;28;20058;-70
2021/12/09 05:09:09;;;;;;;13.85;8.10;;;-2.60;99.90;;;;;;5013611;28;20168;-70
2021/12/09 05:14:01;;;;;;;15.82;9.02;;;-2.60;99.90;;;;;;5013843;28;20478;-70
2021/12/09 05:16:27;;;;;;;16.25;8.98;;;-2.50;99.90;;;;;;5013819;28;20041;-70
2021/12/09 05:18:58;;;;;;;16.05;8.95;;;-2.60;99.90;;;;;;5013810;28;20034;-71
2021/12/09 05:21:29;;;;;;;15.05;8.45;;;-2.50;99.90;;;;;;5014050;28;20022;-70
2021/12/09 05:23:56;;;;;;;17.58;9.60;;;-2.50;99.90;;;;;;5012350;28;20022;-70
2021/12/09 05:26:27;;;;;;;19.80;10.02;;;-2.50;99.90;;;;;;5013785;28;20382;-70
2021/12/09 05:28:56;;;;;;;22.45;11.75;;;-2.40;99.90;;;;;;5013776;28;20026;-70
2021/12/09 05:34:07;;;;;;;27.33;13.02;;;-2.50;99.90;;;;;;5013855;28;20040;-70
2021/12/09 05:36:34;;;;;;;20.92;10.52;;;-2.50;99.90;;;;;;5013263;28;20153;-70
2021/12/09 05:39:00;;;;;;;21.75;11.40;;;-2.50;99.90;;;;;;5011979;28;20140;-70
2021/12/09 05:41:26;;;;;;;20.73;11.13;;;-2.50;99.90;;;;;;5013652;28;20050;-70
2021/12/09 05:43:52;;;;;;;17.15;10.07;;;-2.50;99.90;;;;;;5013200;28;20101;-70
2021/12/09 05:46:17;;;;;;;23.63;12.85;;;-2.50;99.90;;;;;;5011907;28;20033;-70
2021/12/09 05:48:43;;;;;;;21.40;11.38;;;-2.50;99.90;;;;;;5013825;28;20022;-70
2021/12/09 05:51:09;;;;;;;20.25;11.00;;;-2.50;99.90;;;;;;5013544;28;20386;-70
2021/12/09 05:53:35;;;;;;;21.63;11.27;;;-2.50;99.90;;;;;;5013330;28;20470;-71
2021/12/09 05:56:01;;;;;;;22.23;10.63;;;-2.40;99.90;;;;;;5013712;28;20040;-70
2021/12/09 05:58:26;;;;;;;19.40;9.98;;;-2.50;99.90;;;;;;5013147;28;20026;-70
2021/12/09 06:00:53;;;;;;;19.10;10.50;;;-2.40;99.90;;;;;;5013179;28;20097;-70
2021/12/09 06:03:21;;;;;;;18.23;10.18;;;-2.50;99.90;;;;;;5013376;28;20022;-70
2021/12/09 06:05:48;;;;;;;20.65;10.38;;;-2.50;99.90;;;;;;5013099;28;20144;-70
2021/12/09 06:08:14;;;;;;;19.40;11.18;;;-2.40;99.90;;;;;;5013452;28;20393;-70
2021/12/09 06:10:39;;;;;;;21.05;10.40;;;-2.40;99.90;;;;;;5013093;28;20022;-70
2021/12/09 06:13:05;;;;;;;25.08;11.82;;;-2.40;99.90;;;;;;5013313;28;20386;-70
2021/12/09 06:15:32;;;;;;;19.73;10.50;;;-2.40;99.90;;;;;;5012991;28;20030;-69
2021/12/09 06:17:57;;;;;;;18.85;11.35;;;-2.40;99.90;;;;;;5012962;28;20040;-70
2021/12/09 06:20:25;;;;;;;20.95;11.07;;;-2.40;99.90;;;;;;5013218;28;20018;-70
2021/12/09 06:22:51;;;;;;;18.75;10.27;;;-2.40;99.90;;;;;;5013585;28;20018;-70
2021/12/09 06:25:19;;;;;;;18.70;10.05;;;-2.30;99.90;;;;;;5013255;28;20033;-70
2021/12/09 06:27:49;;;;;;;16.90;9.68;;;-2.30;99.90;;;;;;5012903;28;20046;-70
2021/12/09 06:30:17;;;;;;;19.52;9.23;;;-2.30;99.90;;;;;;5013208;28;20026;-70
2021/12/09 06:32:43;;;;;;;16.42;9.15;;;-2.30;99.90;;;;;;5016242;28;20045;-70
2021/12/09 06:35:10;;;;;;;16.45;9.48;;;-2.30;99.90;;;;;;5016994;28;20029;-70
2021/12/09 06:37:39;;;;;;;14.40;9.18;;;-2.30;99.90;;;;;;5016152;28;20593;-70
2021/12/09 06:40:07;;;;;;;18.38;10.43;;;-2.30;99.90;;;;;;5018057;28;20548;-70
2021/12/09 06:42:33;;;;;;;17.02;9.52;;;-2.30;99.90;;;;;;5016462;28;20041;-70
2021/12/09 06:44:59;;;;;;;16.08;9.85;;;-2.30;99.90;;;;;;5015016;28;20025;-70
2021/12/09 06:47:24;;;;;;;20.65;9.95;;;-2.30;99.90;;;;;;5016085;28;20466;-70
2021/12/09 06:49:50;;;;;;;15.57;9.40;;;-2.30;99.90;;;;;;5016126;28;20030;-70
2021/12/09 06:52:17;;;;;;;15.32;9.07;;;-2.30;99.90;;;;;;5016081;28;20022;-70
2021/12/09 06:54:43;;;;;;;22.67;12.18;;;-2.30;99.90;;;;;;5016011;28;20071;-70
2021/12/09 06:57:09;;;;;;;15.65;9.55;;;-2.30;99.90;;;;;;5015909;28;20116;-70
2021/12/09 06:59:34;;;;;;;19.58;10.70;;;-2.30;99.90;;;;;;5015837;28;20386;-70
2021/12/09 07:02:00;;;;;;;20.70;12.38;;;-2.30;99.90;;;;;;5015894;28;20033;-70
2021/12/09 07:04:26;;;;;;;21.88;11.57;;;-2.30;99.90;;;;;;5016130;28;20037;-70
2021/12/09 07:06:52;;;;;;;21.85;11.00;;;-2.30;99.90;;;;;;5015989;28;20119;-69
2021/12/09 07:09:18;;;;;;;20.23;11.40;;;-2.30;99.90;;;;;;5015650;28;20065;-70
2021/12/09 07:11:48;;;;;;;24.80;13.05;;;-2.30;99.90;;;;;;5015712;28;20040;-70
2021/12/09 07:14:13;;;;;;;24.83;13.20;;;-2.30;99.90;;;;;;5016156;28;20473;-70
2021/12/09 07:16:40;;;;;;;22.55;12.35;;;-2.30;99.90;;;;;;5014246;28;20026;-70
2021/12/09 07:19:05;;;;;;;22.83;12.50;;;-2.20;99.90;;;;;;5015413;28;20418;-70
2021/12/09 07:21:31;;;;;;;19.05;10.30;;;-2.20;99.90;;;;;;5015739;28;20028;-70
2021/12/09 07:23:57;;;;;;;20.75;12.60;;;-2.20;99.90;;;;;;5015381;28;20026;-70
2021/12/09 07:26:22;;;;;;;21.75;11.70;;;-2.20;99.90;;;;;;5015359;28;20421;-70
2021/12/09 07:28:48;;;;;;;18.88;11.13;;;-2.20;99.90;;;;;;5015696;28;20026;-70
2021/12/09 07:31:16;;;;;;;17.00;10.10;;;-2.20;99.90;;;;;;5015578;28;20025;-70
2021/12/09 07:33:42;;;;;;;25.88;14.13;;;-2.20;99.90;;;;;;5015230;28;20022;-70
2021/12/09 07:36:07;;;;;;;33.70;16.90;;;-2.20;99.90;;;;;;5015125;28;20034;-70
2021/12/09 07:38:33;;;;;;;28.48;16.42;;;-2.20;99.90;;;;;;5015139;28;20045;-70
2021/12/09 07:40:59;;;;;;;27.05;14.43;;;-2.10;99.90;;;;;;5013875;28;20026;-70
2021/12/09 07:43:25;;;;;;;32.83;19.88;;;-2.10;99.90;;;;;;5012818;28;20030;-70
2021/12/09 07:45:50;;;;;;;25.75;15.90;;;-2.10;99.90;;;;;;5014936;28;20026;-70
2021/12/09 07:48:16;;;;;;;23.48;14.30;;;-2.10;99.90;;;;;;5015071;28;20022;-70
2021/12/09 07:50:42;;;;;;;25.63;14.27;;;-2.00;99.90;;;;;;5015004;28;20041;-70
2021/12/09 07:53:08;;;;;;;27.75;14.35;;;-2.00;99.90;;;;;;5014879;28;20037;-70
2021/12/09 07:55:34;;;;;;;22.80;13.40;;;-2.00;99.90;;;;;;5015113;28;20199;-70
2021/12/09 07:58:00;;;;;;;24.52;15.18;;;-2.00;99.90;;;;;;5014815;28;20081;-69
2021/12/09 08:00:31;;;;;;;28.00;13.63;;;-2.00;99.90;;;;;;5014805;28;20057;-69
2021/12/09 08:02:57;;;;;;;;;;;-2.00;99.90;;;;;;5015178;28;20109;-70
2021/12/09 08:05:24;;;;;;;26.58;13.30;;;-1.90;99.90;;;;;;5014702;28;20000;-70
2021/12/09 08:07:50;;;;;;;23.27;13.07;;;-1.90;99.90;;;;;;5013324;28;20026;-69
2021/12/09 08:10:17;;;;;;;23.80;13.40;;;-1.90;99.90;;;;;;5013438;28;20029;-70
2021/12/09 08:12:44;;;;;;;23.55;14.50;;;-1.80;99.90;;;;;;5014497;28;20072;-70
2021/12/09 08:15:12;;;;;;;22.40;14.00;;;-1.80;99.90;;;;;;5014557;28;20497;-69
2021/12/09 08:20:13;;;;;;;27.95;14.95;;;-1.80;99.90;;;;;;5014639;28;20030;-69
2021/12/09 08:22:39;;;;;;;27.25;14.45;;;-1.80;99.90;;;;;;5014739;28;20018;-69
2021/12/09 08:25:09;;;;;;;24.83;14.10;;;-1.80;99.90;;;;;;5014604;28;20052;-69
2021/12/09 08:27:36;;;;;;;21.77;13.20;;;-1.80;99.90;;;;;;5014392;28;20386;-69
2021/12/09 08:30:06;;;;;;;25.92;16.25;;;-1.70;99.90;;;;;;5014231;28;20041;-69
2021/12/09 08:32:33;;;;;;;24.67;14.60;;;-1.70;99.90;;;;;;5014734;28;20022;-69
2021/12/09 08:34:59;;;;;;;25.70;14.15;;;-1.70;99.90;;;;;;5014138;28;20030;-69
2021/12/09 08:37:25;;;;;;;29.23;16.67;;;-1.60;99.90;;;;;;5012831;28;20026;-69
2021/12/09 08:39:51;;;;;;;41.63;20.13;;;-1.60;99.90;;;;;;5013912;28;20026;-69
2021/12/09 08:42:17;;;;;;;37.15;19.17;;;-1.60;99.90;;;;;;5014016;28;20374;-71
2021/12/09 08:44:43;;;;;;;36.78;17.90;;;-1.60;99.90;;;;;;5013961;28;20505;-69
2021/12/09 08:47:10;;;;;;;31.67;17.85;;;-1.50;99.90;;;;;;5014012;28;20026;-69
2021/12/09 08:49:36;;;;;;;26.05;16.00;;;-1.50;99.90;;;;;;5013924;28;20030;-69
2021/12/09 08:52:03;;;;;;;28.67;16.33;;;-1.50;99.90;;;;;;5013869;28;20026;-69
2021/12/09 08:54:28;;;;;;;25.38;14.93;;;-1.50;99.90;;;;;;5013465;28;20026;-69
2021/12/09 08:56:54;;;;;;;29.60;14.80;;;-1.50;99.90;;;;;;5012450;28;20029;-69
2021/12/09 08:59:22;;;;;;;28.35;15.52;;;-1.50;99.90;;;;;;5014008;28;20470;-69
2021/12/09 09:01:48;;;;;;;25.30;15.23;;;-1.40;99.90;;;;;;5013678;28;20040;-69
2021/12/09 09:04:14;;;;;;;27.33;15.05;;;-1.40;99.90;;;;;;5013723;28;20030;-69
2021/12/09 09:06:51;;;;;;;28.00;16.73;;;-1.40;99.90;;;;;;5013666;28;20021;-69
2021/12/09 09:09:17;;;;;;;30.27;16.40;;;-1.40;99.90;;;;;;5013615;28;20022;-69
2021/12/09 09:11:42;;;;;;;30.15;17.30;;;-1.40;99.90;;;;;;5014116;28;20029;-69
2021/12/09 09:14:08;;;;;;;32.05;17.88;;;-1.40;99.90;;;;;;5013597;28;20034;-69
2021/12/09 09:16:34;;;;;;;28.25;16.90;;;-1.30;99.90;;;;;;5013437;28;20076;-69
2021/12/09 09:19:00;;;;;;;26.73;16.17;;;-1.40;99.90;;;;;;5012089;28;20030;-69
2021/12/09 09:21:28;;;;;;;30.02;17.50;;;-1.30;99.90;;;;;;5013478;28;20022;-69
2021/12/09 09:23:55;;;;;;;25.40;15.02;;;-1.30;99.90;;;;;;5013757;28;20029;-69
2021/12/09 09:26:20;;;;;;;32.72;16.50;;;-1.30;99.90;;;;;;5012119;28;20482;-69
2021/12/09 09:28:46;;;;;;;30.58;18.55;;;-1.20;99.90;;;;;;5013471;28;20034;-69
2021/12/09 09:31:13;;;;;;;30.27;16.92;;;-1.20;99.90;;;;;;5013425;28;20080;-69
2021/12/09 09:33:39;;;;;;;27.42;16.33;;;-1.20;99.90;;;;;;5013348;28;20101;-69
2021/12/09 09:36:05;;;;;;;31.05;17.73;;;-1.10;99.90;;;;;;5013567;28;20104;-69
2021/12/09 09:38:31;;;;;;;26.95;17.00;;;-1.10;99.90;;;;;;5013285;28;20026;-69
2021/12/09 09:41:07;;;;;;;32.55;18.60;;;-1.10;99.90;;;;;;5012004;28;20026;-69
2021/12/09 09:46:11;;;;;;;30.50;18.45;;;-1.00;99.90;;;;;;5013388;28;20026;-69
2021/12/09 09:48:38;;;;;;;27.58;16.85;;;-1.00;99.90;;;;;;5014110;28;20377;-69
2021/12/09 09:51:06;;;;;;;28.88;16.05;;;-1.00;99.90;;;;;;5013539;28;20030;-69
2021/12/09 09:53:33;;;;;;;27.88;15.93;;;-1.00;99.90;;;;;;5013748;28;20377;-69
2021/12/09 09:55:59;;;;;;;24.85;15.27;;;-1.00;99.90;;;;;;5013150;28;20492;-69
2021/12/09 09:58:26;;;;;;;25.00;14.95;;;-1.00;99.90;;;;;;5013399;28;20025;-69
2021/12/09 10:00:53;;;;;;;29.38;15.68;;;-0.90;99.90;;;;;;5013136;28;20049;-69
2021/12/09 10:03:19;;;;;;;27.88;17.92;;;-0.90;99.90;;;;;;5013198;28;20540;-69
2021/12/09 10:05:47;;;;;;;44.33;26.73;;;-0.80;99.90;;;;;;5013338;28;20022;-68
2021/12/09 10:08:16;;;;;;;42.85;22.63;;;-0.80;99.90;;;;;;5016937;28;20022;-69
2021/12/09 10:10:44;;;;;;;39.90;23.23;;;-0.70;99.90;;;;;;5016851;28;20033;-69
2021/12/09 10:13:14;;;;;;;44.63;22.17;;;-0.70;99.90;;;;;;5017097;28;20100;-69
2021/12/09 10:15:51;;;;;;;36.17;20.63;;;-0.70;99.90;;;;;;5016945;28;20026;-69
2021/12/09 10:18:37;;;;;;;36.97;23.15;;;-0.70;99.90;;;;;;5016598;28;20036;-69
2021/12/09 10:21:06;;;;;;;35.70;20.92;;;-0.70;99.90;;;;;;5016457;28;20042;-69
2021/12/09 10:23:36;;;;;;;37.42;21.98;;;-0.70;99.90;;;;;;5016870;28;20493;-69
2021/12/09 10:26:26;;;;;;;21.43;12.87;;;-0.70;99.90;;;;;;5017094;28;20022;-69
2021/12/09 10:29:19;;;;;;;26.63;15.75;;;-0.60;99.90;;;;;;5016545;28;20088;-68
2021/12/09 10:31:48;;;;;;;26.25;15.18;;;-0.60;99.90;;;;;;5016040;28;20067;-69
2021/12/09 10:34:40;;;;;;;23.20;13.75;;;-0.60;99.90;;;;;;5016417;28;20021;-69
2021/12/09 10:37:13;;;;;;;21.83;14.05;;;-0.50;99.90;;;;;;5016424;28;20030;-68
2021/12/09 10:39:46;;;;;;;21.90;13.57;;;-0.50;99.90;;;;;;5016765;28;20057;-69
2021/12/09 10:42:22;;;;;;;23.65;14.23;;;-0.40;99.90;;;;;;5016281;28;20022;-69
2021/12/09 10:44:56;;;;;;;22.33;13.45;;;-0.40;99.90;;;;;;5016260;28;20111;-68
2021/12/09 10:47:47;;;;;;;27.77;16.75;;;-0.30;99.90;;;;;;5016194;28;20022;-69
2021/12/09 10:53:30;;;;;;;30.15;17.83;;;-0.30;99.90;;;;;;5016131;28;20105;-69
2021/12/09 10:56:07;;;;;;;29.95;17.13;;;-0.30;99.90;;;;;;5015824;28;20026;-69
2021/12/09 10:58:36;;;;;;;30.17;19.17;;;-0.20;99.90;;;;;;5016121;28;20486;-69
2021/12/09 11:01:16;;;;;;;28.85;16.90;;;-0.30;99.90;;;;;;5015971;28;20038;-69
2021/12/09 11:03:54;;;;;;;33.70;19.27;;;-0.30;99.90;;;;;;5015938;28;20048;-69
2021/12/09 11:06:23;;;;;;;32.20;19.70;;;-0.30;99.90;;;;;;5015954;28;20061;-68
2021/12/09 11:08:52;;;;;;;36.30;21.75;;;-0.30;99.90;;;;;;5015647;28;20021;-69
2021/12/09 11:11:29;;;;;;;58.53;32.33;;;-0.30;99.90;;;;;;5015527;28;20501;-69
2021/12/09 11:14:13;;;;;;;54.53;33.53;;;-0.30;99.90;;;;;;5016225;28;20037;-69
2021/12/09 11:16:41;;;;;;;50.25;29.35;;;-0.30;99.90;;;;;;5014188;28;20029;-69
2021/12/09 11:19:10;;;;;;;45.95;26.88;;;-0.30;99.90;;;;;;5015416;28;20030;-68
2021/12/09 11:21:44;;;;;;;45.03;25.83;;;-0.30;99.90;;;;;;5015549;28;20096;-69
2021/12/09 11:24:14;;;;;;;34.45;21.33;;;-0.30;99.90;;;;;;5015803;28;20029;-69
2021/12/09 11:29:11;;;;;;;30.55;19.52;;;-0.20;99.90;;;;;;5015720;28;20034;-69
2021/12/09 11:31:51;;;;;;;31.33;19.15;;;-0.20;99.90;;;;;;5015341;28;20057;-69
2021/12/09 11:34:21;;;;;;;24.70;16.75;;;-0.20;99.90;;;;;;5015945;28;20029;-69
2021/12/09 11:36:57;;;;;;;30.20;18.83;;;-0.20;99.90;;;;;;5015185;28;20536;-69
2021/12/09 11:39:31;;;;;;;34.95;19.13;;;-0.10;99.90;;;;;;5015152;28;20636;-69
2021/12/09 11:42:07;;;;;;;35.28;19.55;;;-0.10;99.90;;;;;;5015185;28;20028;-69
2021/12/09 11:44:33;;;;;;;32.60;18.85;;;-0.10;99.90;;;;;;5015120;28;20077;-69
2021/12/09 11:46:59;;;;;;;32.28;18.88;;;-0.10;99.90;;;;;;5015045;28;20017;-69
2021/12/09 11:49:25;;;;;;;29.35;17.77;;;-0.10;99.90;;;;;;5015065;28;20033;-69
2021/12/09 11:51:51;;;;;;;29.73;16.98;;;0.00;99.90;;;;;;5015208;28;20134;-69
2021/12/09 11:54:17;;;;;;;23.52;15.35;;;0.00;99.90;;;;;;5014910;28;20026;-69
2021/12/09 11:56:57;;;;;;;26.77;16.67;;;0.00;99.90;;;;;;5015020;28;20466;-69
2021/12/09 12:06:36;;;;;;;27.92;15.35;;;0.00;99.90;;;;;;5015048;28;20025;-69
2021/12/09 12:11:20;;;;;;;16.15;10.60;;;0.20;99.90;;;;;;5014935;28;20072;-69
2021/12/09 12:13:54;;;;;;;17.70;11.27;;;0.20;99.90;;;;;;5015729;28;20030;-69
2021/12/09 12:17:07;;;;;;;21.20;12.23;;;0.20;99.90;;;;;;5014791;28;20054;-69
2021/12/09 12:26:14;;;;;;;22.98;12.95;;;0.10;99.90;;;;;;5012676;28;20058;-69
2021/12/09 12:31:16;;;;;;;29.27;15.52;;;0.20;99.90;;;;;;5014091;28;20363;-69
2021/12/09 12:42:13;;;;;;;23.02;13.90;;;0.20;99.90;;;;;;5014450;28;20030;-70
2021/12/09 12:45:17;;;;;;;22.40;12.82;;;0.20;99.90;;;;;;5013952;28;20034;-70
2021/12/09 12:47:52;;;;;;;20.73;12.48;;;0.20;99.90;;;;;;5014007;28;20026;-70
2021/12/09 12:50:20;;;;;;;21.50;12.55;;;0.20;99.90;;;;;;5012962;28;20037;-70
2021/12/09 12:52:46;;;;;;;24.10;14.43;;;0.20;99.90;;;;;;5014405;28;20017;-70
2021/12/09 12:55:15;;;;;;;50.55;23.27;;;0.20;99.90;;;;;;5014164;28;20029;-70
2021/12/09 12:57:45;;;;;;;54.95;26.02;;;0.20;99.90;;;;;;5012552;28;20049;-70
2021/12/09 13:00:17;;;;;;;44.03;21.70;;;0.30;99.90;;;;;;5013950;28;20072;-70
2021/12/09 13:13:37;;;;;;;20.75;12.20;;;0.20;99.90;;;;;;5014204;28;20026;-70
2021/12/09 13:16:35;;;;;;;28.33;17.38;;;0.10;99.90;;;;;;5013561;28;20021;-70
2021/12/09 13:21:39;;;;;;;31.70;17.65;;;0.10;99.90;;;;;;5013953;28;20037;-71
2021/12/09 13:27:14;;;;;;;32.45;18.33;;;0.20;99.90;;;;;;5013569;28;20022;-70
2021/12/09 13:35:24;;;;;;;28.15;15.52;;;0.20;99.90;;;;;;5014108;28;20079;-70
2021/12/09 13:46:11;;;;;;;20.33;12.82;;;0.30;99.90;;;;;;5017361;28;20450;-70
2021/12/09 13:48:46;;;;;;;27.50;15.13;;;0.30;99.90;;;;;;5017678;28;20018;-70
2021/12/09 13:56:42;;;;;;;23.20;12.43;;;0.30;99.90;;;;;;5017642;28;20036;-72
2021/12/09 13:59:19;;;;;;;19.05;11.82;;;0.30;99.90;;;;;;5015495;28;20037;-71